Time;durP1;ratioP1;P1;durP2;ratioP2;P2;SDS_P1;SDS_P2;PMS_P1;PMS_P2;Temp;Humidity;BMP_temperature;BMP_pressure;BME280_temperature;BME280_humidity;BME280_pressure;Samples;Min_cycle;Max_cycle;Signal;HPM_P1;HPM_P2
2022/11/23 00:01:20;;;;;;;0.43;0.43;;;;;;;17.90;37.50;100631.94;5040177;28;20178;-92
2022/11/23 00:03:50;;;;;;;0.50;0.40;;;;;;;17.89;37.45;100634.88;5075136;28;20035;-94
2022/11/23 00:06:16;;;;;;;0.70;0.50;;;;;;;17.88;37.50;100627.81;5066422;28;20363;-94
2022/11/23 00:08:42;;;;;;;0.47;0.47;;;;;;;17.79;37.27;100619.16;5040880;28;20038;-94
2022/11/23 00:11:08;;;;;;;0.60;0.50;;;;;;;17.86;37.39;100636.16;5061443;28;20497;-93
2022/11/23 00:13:34;;;;;;;0.60;0.60;;;;;;;17.90;37.35;100641.91;5050407;28;20024;-93
2022/11/23 00:16:12;;;;;;;0.40;0.40;;;;;;;17.88;37.42;100649.44;5073270;28;20020;-94
2022/11/23 00:18:37;;;;;;;0.65;0.50;;;;;;;17.87;37.25;100643.22;5059282;28;20032;-94
2022/11/23 00:21:14;;;;;;;1.85;0.50;;;;;;;17.87;37.12;100645.06;5074214;28;20027;-92
2022/11/23 00:23:39;;;;;;;0.70;0.50;;;;;;;17.90;37.29;100653.56;5067189;28;20070;-94
2022/11/23 00:26:08;;;;;;;0.52;0.52;;;;;;;17.78;37.38;100631.88;5056041;28;20031;-93
2022/11/23 00:28:37;;;;;;;0.50;0.50;;;;;;;17.82;37.32;100649.25;5057359;28;20389;-93
2022/11/23 00:31:04;;;;;;;0.40;0.40;;;;;;;17.76;37.27;100647.47;5075470;28;20469;-93
2022/11/23 00:33:29;;;;;;;0.75;0.50;;;;;;;17.82;37.38;100653.84;5055155;28;20504;-93
2022/11/23 00:36:12;;;;;;;0.40;0.40;;;;;;;17.76;37.40;100652.88;5057168;28;20016;-92
2022/11/23 00:38:38;;;;;;;0.65;0.50;;;;;;;17.90;37.39;100671.66;5075310;28;20070;-93
2022/11/23 00:41:09;;;;;;;0.50;0.50;;;;;;;17.80;37.30;100664.09;5057772;28;20031;-93
2022/11/23 00:43:35;;;;;;;0.75;0.60;;;;;;;17.87;37.27;100674.81;5075717;28;20043;-92
2022/11/23 00:46:10;;;;;;;0.60;0.60;;;;;;;17.84;37.28;100665.25;5040863;28;20402;-93
2022/11/23 00:48:36;;;;;;;0.60;0.60;;;;;;;17.89;37.32;100675.44;5075010;28;20123;-92
2022/11/23 00:51:03;;;;;;;0.63;0.63;;;;;;;17.84;37.27;100676.91;5056751;28;20107;-91
2022/11/23 00:53:29;;;;;;;1.15;0.57;;;;;;;17.83;37.39;100677.13;5044677;28;20119;-92
2022/11/23 00:55:55;;;;;;;0.98;0.40;;;;;;;17.79;37.30;100668.66;5061710;28;20552;-92
2022/11/23 00:58:21;;;;;;;0.73;0.55;;;;;;;17.86;37.27;100686.66;5076681;28;20415;-92
2022/11/23 01:00:46;;;;;;;1.27;0.50;;;;;;;17.84;37.25;100682.31;5061226;28;20016;-92
2022/11/23 01:03:12;;;;;;;0.55;0.55;;;;;;;17.87;37.21;100688.31;5060907;28;20037;-92
2022/11/23 01:05:38;;;;;;;0.30;0.30;;;;;;;17.76;37.42;100679.09;5059164;28;20152;-92
2022/11/23 01:08:07;;;;;;;0.63;0.60;;;;;;;17.80;37.18;100691.13;5061384;28;20122;-92
2022/11/23 01:10:32;;;;;;;0.45;0.45;;;;;;;17.82;37.31;100706.03;5065177;28;20382;-92
2022/11/23 01:12:58;;;;;;;0.47;0.47;;;;;;;17.86;37.33;100695.63;5068636;28;20499;-93
2022/11/23 01:15:24;;;;;;;0.60;0.60;;;;;;;17.73;37.21;100680.38;5061209;28;20110;-93
2022/11/23 01:17:50;;;;;;;0.60;0.50;;;;;;;17.79;37.31;100684.88;5061010;28;21178;-93
2022/11/23 01:20:16;;;;;;;0.50;0.50;;;;;;;17.73;37.25;100680.38;5077534;28;20024;-92
2022/11/23 01:22:41;;;;;;;0.65;0.57;;;;;;;17.76;37.32;100684.50;5054042;28;20134;-92
2022/11/23 01:25:07;;;;;;;0.82;0.70;;;;;;;17.88;37.28;100698.91;5071507;28;20505;-93
2022/11/23 01:27:33;;;;;;;0.50;0.50;;;;;;;17.82;37.26;100679.00;5044441;28;20016;-92
2022/11/23 01:29:59;;;;;;;0.52;0.52;;;;;;;17.83;37.27;100683.38;5043683;28;20093;-92
2022/11/23 01:32:24;;;;;;;0.50;0.50;;;;;;;17.80;37.35;100680.31;5059609;28;20854;-92
2022/11/23 01:34:50;;;;;;;0.70;0.68;;;;;;;17.81;37.22;100688.16;5077378;28;20547;-92
2022/11/23 01:37:18;;;;;;;0.45;0.45;;;;;;;17.84;37.23;100679.59;5066007;28;20039;-93
2022/11/23 01:39:47;;;;;;;0.55;0.52;;;;;;;17.83;37.29;100677.13;5078367;28;20056;-91
2022/11/23 01:42:13;;;;;;;0.60;0.50;;;;;;;17.76;37.28;100663.69;5059866;28;20060;-92
2022/11/23 01:44:43;;;;;;;0.52;0.50;;;;;;;17.77;37.33;100657.25;5079029;28;20050;-93
2022/11/23 01:47:11;;;;;;;0.95;0.50;;;;;;;17.86;37.29;100673.16;5069094;28;20514;-92
2022/11/23 01:49:43;;;;;;;0.57;0.50;;;;;;;17.87;37.28;100670.25;5075432;28;20474;-93
2022/11/23 01:52:20;;;;;;;0.60;0.52;;;;;;;17.87;37.21;100662.13;5058173;28;20035;-93
2022/11/23 01:54:50;;;;;;;0.60;0.50;;;;;;;17.83;37.16;100653.63;5077177;28;20028;-93
2022/11/23 01:57:30;;;;;;;0.60;0.60;;;;;;;17.79;37.19;100644.31;5077663;28;20039;-93
2022/11/23 01:59:59;;;;;;;0.52;0.50;;;;;;;17.80;37.12;100654.09;5043601;28;20020;-92
2022/11/23 02:02:25;;;;;;;0.43;0.43;;;;;;;17.78;37.32;100644.53;5065963;28;20402;-93
2022/11/23 02:04:51;;;;;;;1.05;0.80;;;;;;;17.82;37.23;100651.16;5050376;28;20031;-92
2022/11/23 02:07:16;;;;;;;0.55;0.55;;;;;;;17.75;37.22;100647.72;5043891;28;20402;-92
2022/11/23 02:09:42;;;;;;;0.60;0.60;;;;;;;17.88;36.95;100654.84;5043236;28;20032;-92
2022/11/23 02:12:11;;;;;;;0.52;0.50;;;;;;;17.78;37.16;100639.97;5059718;28;20035;-89
2022/11/23 02:14:37;;;;;;;1.08;0.77;;;;;;;17.80;37.15;100643.28;5034593;28;20479;-92
2022/11/23 02:17:03;;;;;;;0.70;0.70;;;;;;;17.82;37.26;100646.56;5065272;28;20031;-92
2022/11/23 02:19:48;;;;;;;0.60;0.60;;;;;;;17.86;37.16;100646.97;5061816;28;20570;-92
2022/11/23 02:22:19;;;;;;;0.77;0.60;;;;;;;17.79;37.27;100636.22;5047500;28;20449;-92
2022/11/23 02:24:48;;;;;;;0.60;0.60;;;;;;;17.71;37.23;100627.59;5061486;28;20081;-93
2022/11/23 02:27:16;;;;;;;0.60;0.60;;;;;;;17.80;37.15;100642.47;5060738;28;20072;-93
2022/11/23 02:29:44;;;;;;;0.50;0.50;;;;;;;17.82;37.13;100641.16;5058617;28;20043;-92
2022/11/23 02:32:33;;;;;;;0.60;0.60;;;;;;;17.86;37.31;100643.41;5076346;28;20125;-92
2022/11/23 02:34:59;;;;;;;0.70;0.70;;;;;;;17.78;37.27;100628.31;5071536;28;20048;-92
2022/11/23 02:37:24;;;;;;;0.60;0.60;;;;;;;17.83;37.16;100632.00;5042425;28;20196;-91
2022/11/23 02:39:50;;;;;;;0.88;0.60;;;;;;;17.86;37.13;100638.00;5062722;28;20131;-91
2022/11/23 02:42:16;;;;;;;0.50;0.50;;;;;;;17.83;37.10;100631.16;5059079;28;20433;-92
2022/11/23 02:45:14;;;;;;;0.60;0.60;;;;;;;17.86;37.14;100629.88;5051653;28;20027;-93
2022/11/23 02:47:40;;;;;;;0.70;0.70;;;;;;;17.71;37.13;100609.50;5076760;28;20047;-92
2022/11/23 02:50:08;;;;;;;0.70;0.70;;;;;;;17.78;37.17;100617.50;5048762;28;20123;-92
2022/11/23 02:52:33;;;;;;;0.80;0.70;;;;;;;17.83;37.07;100626.59;5047681;28;20123;-92
2022/11/23 02:54:59;;;;;;;1.10;0.75;;;;;;;17.75;37.26;100618.00;5056735;28;20110;-93
2022/11/23 02:57:25;;;;;;;0.60;0.60;;;;;;;17.71;37.30;100612.19;5077545;28;20024;-92
2022/11/23 02:59:50;;;;;;;0.70;0.60;;;;;;;17.72;37.13;100621.97;5040808;28;20483;-92
2022/11/23 03:02:19;;;;;;;0.70;0.70;;;;;;;17.72;37.23;100605.75;5057049;28;20382;-92
2022/11/23 03:04:44;;;;;;;0.70;0.60;;;;;;;17.84;37.24;100625.53;5059150;28;20395;-92
2022/11/23 03:07:10;;;;;;;0.75;0.75;;;;;;;17.84;37.22;100620.13;5077083;28;20044;-92
2022/11/23 03:09:36;;;;;;;0.68;0.68;;;;;;;17.82;37.24;100619.53;5060271;28;20114;-92
2022/11/23 03:12:01;;;;;;;0.70;0.70;;;;;;;17.84;37.27;100616.59;5076064;28;20088;-93
2022/11/23 03:14:27;;;;;;;0.63;0.60;;;;;;;17.79;37.32;100609.16;5040910;28;20077;-89
2022/11/23 03:16:53;;;;;;;0.85;0.73;;;;;;;17.83;37.29;100604.97;5059410;28;20024;-92
2022/11/23 03:19:18;;;;;;;0.60;0.60;;;;;;;17.82;37.16;100603.31;5058711;28;20020;-92
2022/11/23 03:21:44;;;;;;;0.57;0.57;;;;;;;17.80;37.13;100604.59;5042692;28;20028;-92
2022/11/23 03:24:09;;;;;;;0.80;0.70;;;;;;;17.86;37.16;100613.66;5050430;28;20606;-92
2022/11/23 03:26:35;;;;;;;1.02;0.60;;;;;;;17.81;37.23;100598.94;5075200;28;20093;-92
2022/11/23 03:29:01;;;;;;;0.82;0.70;;;;;;;17.81;37.26;100601.66;5075014;28;20062;-92
2022/11/23 03:31:26;;;;;;;0.95;0.70;;;;;;;17.80;37.34;100613.53;5076776;28;20118;-92
2022/11/23 03:33:52;;;;;;;0.85;0.68;;;;;;;17.82;37.21;100611.41;5068701;28;20036;-93
2022/11/23 03:36:17;;;;;;;0.63;0.63;;;;;;;17.77;37.26;100594.25;5041121;28;20439;-92
2022/11/23 03:38:43;;;;;;;0.82;0.80;;;;;;;17.77;37.25;100589.66;5058215;28;20015;-92
2022/11/23 03:41:09;;;;;;;0.95;0.63;;;;;;;17.82;37.16;100602.50;5058465;28;20042;-92
2022/11/23 03:43:34;;;;;;;0.95;0.80;;;;;;;17.82;37.18;100611.41;5067728;28;20549;-93
2022/11/23 03:46:00;;;;;;;1.00;0.80;;;;;;;17.80;37.40;100602.72;5057325;28;20112;-92
2022/11/23 03:48:25;;;;;;;0.82;0.73;;;;;;;17.80;37.31;100604.59;5074518;28;20039;-92
2022/11/23 03:50:51;;;;;;;0.70;0.63;;;;;;;17.79;37.26;100603.75;5076392;28;20089;-92
2022/11/23 03:53:17;;;;;;;0.80;0.80;;;;;;;17.79;37.00;100611.88;5041014;28;20024;-93
2022/11/23 03:55:45;;;;;;;1.00;0.80;;;;;;;17.77;37.28;100616.69;5058195;28;20062;-92
2022/11/23 03:58:11;;;;;;;0.98;0.70;;;;;;;17.80;37.30;100618.94;5047239;28;20042;-92
2022/11/23 04:00:36;;;;;;;0.80;0.75;;;;;;;17.76;37.19;100611.50;5057758;28;20024;-93
2022/11/23 04:03:03;;;;;;;0.70;0.70;;;;;;;17.79;37.31;100609.16;5058581;28;20485;-92
2022/11/23 04:05:28;;;;;;;1.00;0.90;;;;;;;17.74;37.28;100606.34;5076135;28;20012;-92
2022/11/23 04:07:54;;;;;;;0.70;0.70;;;;;;;17.76;37.25;100620.44;5056509;28;20493;-92
2022/11/23 04:10:20;;;;;;;0.85;0.80;;;;;;;17.77;37.40;100619.41;5057398;28;20024;-92
2022/11/23 04:12:49;;;;;;;0.75;0.75;;;;;;;17.81;37.28;100628.69;5075249;28;20036;-93
2022/11/23 04:15:15;;;;;;;1.70;1.08;;;;;;;17.78;37.39;100633.72;5075158;28;20024;-93
2022/11/23 04:17:41;;;;;;;1.30;0.77;;;;;;;17.79;37.23;100619.97;5047627;28;20073;-92
2022/11/23 04:20:07;;;;;;;0.88;0.88;;;;;;;17.78;37.26;100623.75;5040983;28;20131;-92
2022/11/23 04:22:34;;;;;;;1.13;0.90;;;;;;;17.67;37.19;100594.78;5051203;28;20020;-93
2022/11/23 04:25:00;;;;;;;1.15;1.00;;;;;;;17.68;37.37;100601.88;5055968;28;20055;-91
2022/11/23 04:27:26;;;;;;;2.83;1.00;;;;;;;17.70;37.21;100605.16;5044658;28;20427;-92
2022/11/23 04:29:51;;;;;;;0.73;0.60;;;;;;;17.72;37.28;100603.03;5071301;28;20449;-92
2022/11/23 04:32:17;;;;;;;0.70;0.70;;;;;;;17.69;37.34;100599.97;5056102;28;20047;-92
2022/11/23 04:34:42;;;;;;;0.95;0.85;;;;;;;17.69;37.39;100600.78;5074634;28;20031;-92
2022/11/23 04:37:08;;;;;;;1.30;0.80;;;;;;;17.81;37.37;100612.47;5074197;28;21014;-92
2022/11/23 04:39:34;;;;;;;0.77;0.77;;;;;;;17.71;37.21;100601.38;5064985;28;20056;-90
2022/11/23 04:41:59;;;;;;;0.73;0.73;;;;;;;17.78;37.26;100612.94;5075842;28;20064;-92
2022/11/23 04:44:25;;;;;;;0.88;0.82;;;;;;;17.77;37.25;100616.69;5055560;28;20111;-92
2022/11/23 04:46:53;;;;;;;1.00;0.90;;;;;;;17.76;37.18;100606.09;5074165;28;20024;-92
2022/11/23 04:49:19;;;;;;;1.08;0.88;;;;;;;17.76;37.35;100609.63;5074576;28;20058;-92
2022/11/23 04:51:45;;;;;;;0.90;0.90;;;;;;;17.72;37.27;100610.34;5056763;28;20404;-93
2022/11/23 04:54:10;;;;;;;1.05;0.82;;;;;;;17.76;37.27;100614.22;5073012;28;20036;-92
2022/11/23 04:56:36;;;;;;;0.82;0.80;;;;;;;17.69;37.36;100603.50;5057560;28;20478;-92
2022/11/23 04:59:01;;;;;;;2.22;1.20;;;;;;;17.75;37.29;100609.88;5041325;28;20028;-93
2022/11/23 05:01:27;;;;;;;0.88;0.80;;;;;;;17.78;37.18;100615.66;5062316;28;20030;-92
2022/11/23 05:03:53;;;;;;;0.80;0.80;;;;;;;17.76;37.27;100617.72;5075192;28;20047;-92
2022/11/23 05:06:21;;;;;;;1.55;0.90;;;;;;;17.78;37.34;100614.81;5072438;28;20417;-92
2022/11/23 05:08:46;;;;;;;0.98;0.80;;;;;;;17.80;37.29;100618.94;5075845;28;20490;-92
2022/11/23 05:11:12;;;;;;;0.95;0.88;;;;;;;17.79;37.28;100613.75;5073992;28;20028;-92
2022/11/23 05:13:38;;;;;;;1.00;0.90;;;;;;;17.79;37.40;100622.69;5075230;28;20103;-93
2022/11/23 05:16:06;;;;;;;0.90;0.90;;;;;;;17.76;37.33;100609.63;5041931;28;20435;-93
2022/11/23 05:18:32;;;;;;;1.02;0.90;;;;;;;17.69;37.23;100608.91;5073108;28;20024;-92
2022/11/23 05:20:58;;;;;;;1.30;1.20;;;;;;;17.77;37.27;100614.00;5056905;28;20489;-93
2022/11/23 05:23:23;;;;;;;0.77;0.77;;;;;;;17.79;37.38;100616.47;5064602;28;20567;-92
2022/11/23 05:25:49;;;;;;;0.82;0.80;;;;;;;17.80;37.25;100621.66;5074563;28;20013;-93
2022/11/23 05:28:16;;;;;;;1.58;1.10;;;;;;;17.79;37.33;100619.16;5060121;28;20056;-92
2022/11/23 05:30:42;;;;;;;1.52;1.10;;;;;;;17.73;37.18;100612.81;5058057;28;20402;-92
2022/11/23 05:33:08;;;;;;;1.10;1.00;;;;;;;17.69;37.29;100600.78;5045220;28;20039;-93
2022/11/23 05:35:34;;;;;;;0.85;0.85;;;;;;;17.67;37.29;100602.91;5057958;28;20024;-92
2022/11/23 05:38:00;;;;;;;1.77;1.10;;;;;;;17.70;37.17;100610.56;5076204;28;20093;-92
2022/11/23 05:40:25;;;;;;;1.00;0.90;;;;;;;17.69;37.11;100619.72;5070540;28;20039;-92
2022/11/23 05:42:55;;;;;;;1.10;1.00;;;;;;;17.76;37.33;100625.84;5068535;28;20044;-92
2022/11/23 05:45:21;;;;;;;1.65;0.88;;;;;;;17.77;37.18;100626.69;5079325;28;20035;-93
2022/11/23 05:47:57;;;;;;;1.10;1.00;;;;;;;17.78;37.28;100629.16;5076117;28;20445;-92
2022/11/23 05:50:24;;;;;;;1.20;1.10;;;;;;;17.77;37.33;100627.50;5067986;28;20028;-92
2022/11/23 05:52:49;;;;;;;1.08;0.98;;;;;;;17.77;37.25;100632.09;5061290;28;20203;-88
2022/11/23 05:55:15;;;;;;;1.20;1.10;;;;;;;17.79;37.19;100629.97;5047062;28;20063;-92
2022/11/23 05:57:41;;;;;;;0.88;0.80;;;;;;;17.80;37.19;100648.69;5068761;28;20475;-92
2022/11/23 06:00:09;;;;;;;1.73;1.20;;;;;;;17.78;37.48;100641.84;5070530;28;20020;-92
2022/11/23 06:02:35;;;;;;;1.15;0.90;;;;;;;17.75;37.42;100648.53;5075685;28;20437;-92
2022/11/23 06:05:00;;;;;;;1.35;1.05;;;;;;;17.80;37.22;100654.09;5058385;28;20023;-93
2022/11/23 06:07:26;;;;;;;1.63;1.00;;;;;;;17.79;36.94;100651.59;5066539;28;20030;-91
2022/11/23 06:09:52;;;;;;;1.05;0.80;;;;;;;17.78;37.28;100650.78;5075065;28;20028;-92
2022/11/23 06:12:17;;;;;;;1.13;1.02;;;;;;;17.74;37.32;100644.19;5056976;28;20157;-92
2022/11/23 06:14:43;;;;;;;1.20;1.10;;;;;;;17.79;37.39;100657.84;5061409;28;20373;-92
2022/11/23 06:17:09;;;;;;;1.45;1.10;;;;;;;17.74;37.34;100649.59;5067515;28;20565;-90
2022/11/23 06:19:34;;;;;;;1.60;1.10;;;;;;;17.80;37.27;100659.50;5076986;28;20020;-90
2022/11/23 06:22:00;;;;;;;1.00;0.90;;;;;;;17.75;37.24;100651.25;5073624;28;20023;-91
2022/11/23 06:24:26;;;;;;;2.53;1.20;;;;;;;17.75;37.26;100645.84;5067716;28;20032;-92
2022/11/23 06:26:51;;;;;;;1.27;1.02;;;;;;;17.76;37.22;100650.16;5076058;28;20428;-91
2022/11/23 06:29:20;;;;;;;1.35;1.00;;;;;;;17.78;37.19;100644.53;5061027;28;20090;-92
2022/11/23 06:31:46;;;;;;;1.63;1.00;;;;;;;17.74;37.32;100649.59;5059760;28;20263;-92
2022/11/23 06:34:11;;;;;;;1.30;1.05;;;;;;;17.73;37.33;100649.81;5043665;28;20026;-92
2022/11/23 06:36:37;;;;;;;1.50;1.10;;;;;;;17.77;37.10;100654.53;5069593;28;20039;-92
2022/11/23 06:39:03;;;;;;;1.15;0.95;;;;;;;17.77;37.38;100657.25;5078151;28;20169;-92
2022/11/23 06:41:28;;;;;;;1.10;0.98;;;;;;;17.79;37.50;100652.44;5045011;28;20127;-91
2022/11/23 06:43:54;;;;;;;2.20;1.10;;;;;;;17.63;37.32;100626.88;5062339;28;20024;-92
2022/11/23 06:46:20;;;;;;;1.20;1.10;;;;;;;17.77;37.38;100649.13;5050496;28;20115;-92
2022/11/23 06:48:45;;;;;;;1.20;1.02;;;;;;;17.78;37.25;100656.19;5061576;28;20020;-92
2022/11/23 06:51:11;;;;;;;1.08;0.95;;;;;;;17.78;37.38;100648.09;5061389;28;20119;-92
2022/11/23 06:53:37;;;;;;;1.38;1.00;;;;;;;17.74;37.28;100640.66;5051360;28;20035;-92
2022/11/23 06:56:03;;;;;;;1.30;0.90;;;;;;;17.78;37.35;100648.09;5061181;28;20054;-92
2022/11/23 06:58:28;;;;;;;1.27;1.10;;;;;;;17.77;37.21;100649.13;5061412;28;20107;-91
2022/11/23 07:01:00;;;;;;;1.08;0.90;;;;;;;17.74;37.29;100644.19;5070405;28;20024;-91
2022/11/23 07:03:26;;;;;;;1.48;1.13;;;;;;;17.77;37.44;100654.53;5050908;28;20475;-92
2022/11/23 07:05:52;;;;;;;0.70;0.70;;;;;;;17.79;37.30;100660.53;5061426;28;20058;-91
2022/11/23 07:08:17;;;;;;;1.75;1.00;;;;;;;17.73;37.26;100664.16;5060083;28;20749;-92
2022/11/23 07:10:43;;;;;;;2.50;0.93;;;;;;;17.79;37.31;100667.81;5060833;28;20028;-91
2022/11/23 07:13:13;;;;;;;1.23;1.13;;;;;;;17.74;37.29;100665.81;5077993;28;20024;-94
2022/11/23 07:15:38;;;;;;;1.15;0.90;;;;;;;17.79;37.33;100671.34;5061895;28;20470;-92
2022/11/23 07:18:11;;;;;;;1.08;0.98;;;;;;;17.77;37.39;100668.06;5044576;28;20035;-92
2022/11/23 07:20:37;;;;;;;1.95;1.00;;;;;;;17.78;37.21;100672.41;5065784;28;20016;-92
2022/11/23 07:23:07;;;;;;;1.30;1.00;;;;;;;17.76;37.28;100671.78;5073891;28;22983;-93
2022/11/23 07:25:34;;;;;;;0.88;0.77;;;;;;;17.76;37.35;100677.19;5044118;28;20031;-91
2022/11/23 07:28:01;;;;;;;1.35;1.08;;;;;;;17.76;37.41;100679.91;5077029;28;20490;-92
2022/11/23 07:30:27;;;;;;;1.50;1.00;;;;;;;17.78;37.46;100675.13;5059141;28;20074;-92
2022/11/23 07:32:53;;;;;;;1.60;1.13;;;;;;;17.76;37.35;100679.91;5059364;28;20384;-91
2022/11/23 07:35:19;;;;;;;1.10;1.00;;;;;;;17.76;37.26;100677.19;5063453;28;20086;-91
2022/11/23 07:37:45;;;;;;;1.10;0.93;;;;;;;17.78;37.47;100683.22;5068229;28;20031;-92
2022/11/23 07:40:10;;;;;;;1.15;1.05;;;;;;;17.81;37.26;100690.03;5077203;28;20214;-92
2022/11/23 07:42:36;;;;;;;1.42;0.90;;;;;;;17.79;37.38;100687.56;5060077;28;20478;-92
2022/11/23 07:45:05;;;;;;;0.90;0.80;;;;;;;17.78;37.43;100685.09;5054694;28;20023;-91
2022/11/23 07:47:31;;;;;;;0.95;0.88;;;;;;;17.78;37.40;100687.78;5064481;28;20444;-91
2022/11/23 07:49:57;;;;;;;0.80;0.73;;;;;;;17.80;37.60;100694.63;5058139;28;20028;-91
2022/11/23 07:52:22;;;;;;;1.48;1.00;;;;;;;17.76;37.41;100670.97;5058832;28;20130;-92
2022/11/23 07:54:48;;;;;;;1.00;0.90;;;;;;;17.75;37.29;100675.56;5059950;28;20085;-92
2022/11/23 07:57:14;;;;;;;1.10;1.00;;;;;;;17.74;37.34;100679.31;5076999;28;20056;-91
2022/11/23 07:59:39;;;;;;;0.80;0.80;;;;;;;17.71;37.51;100677.06;5075494;28;20367;-92
2022/11/23 08:02:15;;;;;;;0.90;0.90;;;;;;;17.75;37.43;100683.69;5044590;28;20016;-91
2022/11/23 08:04:40;;;;;;;1.33;0.93;;;;;;;17.79;37.39;100676.75;5059924;28;20050;-92
2022/11/23 08:07:06;;;;;;;1.02;0.88;;;;;;;17.79;37.39;100684.88;5043030;28;20028;-92
2022/11/23 08:09:32;;;;;;;1.10;0.95;;;;;;;17.81;37.39;100684.63;5076162;28;20076;-91
2022/11/23 08:11:57;;;;;;;1.60;1.00;;;;;;;17.80;37.35;100693.81;5078256;28;20088;-92
2022/11/23 08:14:23;;;;;;;1.45;0.85;;;;;;;17.77;37.32;100686.97;5041201;28;20028;-91
2022/11/23 08:16:49;;;;;;;1.00;0.90;;;;;;;17.82;37.40;100689.81;5045498;28;20028;-88
2022/11/23 08:19:16;;;;;;;0.80;0.80;;;;;;;17.80;37.37;100691.13;5041645;28;20089;-91
2022/11/23 08:21:42;;;;;;;0.88;0.73;;;;;;;17.78;37.33;100693.19;5060686;28;20016;-91
2022/11/23 08:24:08;;;;;;;0.75;0.70;;;;;;;17.78;37.27;100688.63;5057493;28;20395;-92
2022/11/23 08:26:33;;;;;;;1.08;0.98;;;;;;;17.80;37.40;100700.03;5041451;28;20269;-92
2022/11/23 08:28:59;;;;;;;0.95;0.82;;;;;;;17.81;37.27;100692.75;5077009;28;20048;-92
2022/11/23 08:31:24;;;;;;;1.10;0.80;;;;;;;17.80;37.45;100691.94;5060219;28;20036;-91
2022/11/23 08:33:50;;;;;;;0.80;0.80;;;;;;;17.80;37.39;100691.94;5059525;28;20020;-90
2022/11/23 08:36:16;;;;;;;0.95;0.65;;;;;;;17.77;37.51;100691.56;5075260;28;20032;-91
2022/11/23 08:38:41;;;;;;;0.55;0.50;;;;;;;17.80;37.39;100691.13;5054001;28;20054;-91
2022/11/23 08:41:10;;;;;;;0.98;0.70;;;;;;;17.81;37.47;100693.56;5076985;28;20036;-91
2022/11/23 08:43:36;;;;;;;1.77;0.88;;;;;;;17.78;37.49;100694.03;5068219;28;20051;-91
2022/11/23 08:46:01;;;;;;;1.02;0.80;;;;;;;17.79;37.54;100692.97;5060022;28;20469;-94
2022/11/23 08:48:27;;;;;;;0.93;0.60;;;;;;;17.82;37.53;100700.63;5041775;28;20031;-92
2022/11/23 08:50:53;;;;;;;0.93;0.70;;;;;;;17.81;37.56;100698.16;5056571;28;20348;-93
2022/11/23 08:53:18;;;;;;;0.68;0.68;;;;;;;17.83;37.42;100707.69;5075876;28;20082;-93
2022/11/23 08:55:44;;;;;;;0.65;0.65;;;;;;;17.79;37.42;100701.09;5076020;28;20032;-92
2022/11/23 08:58:10;;;;;;;0.75;0.75;;;;;;;17.79;37.53;100701.09;5076626;28;20028;-92
2022/11/23 09:00:35;;;;;;;0.57;0.57;;;;;;;17.76;37.47;100693.41;5059824;28;20036;-92
2022/11/23 09:03:01;;;;;;;0.70;0.70;;;;;;;17.74;37.40;100686.59;5075918;28;20069;-93
2022/11/23 09:05:30;;;;;;;0.82;0.68;;;;;;;17.82;37.51;100705.22;5077076;28;20028;-93
2022/11/23 09:07:58;;;;;;;1.45;0.77;;;;;;;17.81;37.51;100698.97;5073182;28;20065;-93
2022/11/23 09:10:24;;;;;;;0.60;0.60;;;;;;;17.82;37.40;100706.03;5056842;28;20312;-93
2022/11/23 09:12:53;;;;;;;0.80;0.80;;;;;;;17.80;37.41;100707.34;5062270;28;20116;-92
2022/11/23 09:15:19;;;;;;;0.52;0.52;;;;;;;17.81;37.45;100698.16;5075337;28;20422;-92
2022/11/23 09:17:44;;;;;;;0.75;0.70;;;;;;;17.84;37.39;100706.63;5081394;28;20125;-92
2022/11/23 09:20:10;;;;;;;0.63;0.63;;;;;;;17.79;37.33;100700.25;5050280;28;20510;-93
2022/11/23 09:22:36;;;;;;;0.68;0.60;;;;;;;17.82;37.46;100714.16;5081938;28;20020;-93
2022/11/23 09:25:02;;;;;;;0.68;0.68;;;;;;;17.82;37.44;100710.63;5047271;28;20021;-92
2022/11/23 09:27:27;;;;;;;0.70;0.70;;;;;;;17.78;37.36;100704.84;5079537;28;20024;-92
2022/11/23 09:29:53;;;;;;;0.63;0.63;;;;;;;17.75;37.43;100701.78;5071314;28;20571;-92
2022/11/23 09:32:19;;;;;;;0.73;0.70;;;;;;;17.80;37.40;100708.16;5079755;28;20031;-93
2022/11/23 09:34:44;;;;;;;0.60;0.60;;;;;;;17.82;37.59;100710.63;5079653;28;20020;-92
2022/11/23 09:37:11;;;;;;;0.55;0.55;;;;;;;17.83;37.21;100710.41;5062627;28;20165;-91
2022/11/23 09:39:36;;;;;;;0.55;0.55;;;;;;;17.79;37.46;100711.91;5046249;28;20024;-92
2022/11/23 09:42:26;;;;;;;0.80;0.70;;;;;;;17.81;37.55;100709.78;5060855;28;20031;-92
2022/11/23 09:45:15;;;;;;;0.80;0.80;;;;;;;17.82;37.46;100719.56;5078728;28;20052;-93
2022/11/23 09:48:08;;;;;;;0.63;0.57;;;;;;;17.86;37.43;100716.41;5079375;28;20027;-92
2022/11/23 09:50:48;;;;;;;0.73;0.50;;;;;;;17.84;37.48;100708.53;5059862;28;20032;-90
2022/11/23 09:53:37;;;;;;;0.52;0.52;;;;;;;17.82;37.47;100711.44;5051096;28;20081;-91
2022/11/23 09:56:02;;;;;;;0.60;0.60;;;;;;;17.79;37.40;100703.78;5063125;28;20070;-92
2022/11/23 09:58:37;;;;;;;0.77;0.70;;;;;;;17.83;37.48;100714.97;5062321;28;20028;-92
2022/11/23 10:01:06;;;;;;;1.05;0.70;;;;;;;17.76;37.48;100706.94;5067253;28;20512;-92
2022/11/23 10:03:35;;;;;;;0.80;0.70;;;;;;;17.83;37.55;100706.84;5063016;28;20020;-92
2022/11/23 10:06:03;;;;;;;0.95;0.73;;;;;;;17.86;37.46;100719.09;5079423;28;20020;-92
2022/11/23 10:09:06;;;;;;;1.02;0.70;;;;;;;17.87;37.44;100723.47;5079309;28;20341;-93
2022/11/23 10:11:35;;;;;;;0.63;0.50;;;;;;;17.86;37.42;100721.81;5079017;28;20028;-92
2022/11/23 10:14:18;;;;;;;0.60;0.60;;;;;;;17.82;37.62;100714.16;5079686;28;20028;-92
2022/11/23 10:17:01;;;;;;;0.70;0.70;;;;;;;17.86;37.48;100716.41;5061967;28;20428;-92
2022/11/23 10:19:45;;;;;;;1.65;1.00;;;;;;;17.86;37.42;100716.41;5061839;28;20051;-93
2022/11/23 10:22:19;;;;;;;0.75;0.65;;;;;;;17.80;37.46;100718.97;5077067;28;20044;-93
2022/11/23 10:24:48;;;;;;;0.52;0.52;;;;;;;17.76;37.44;100709.63;5078841;28;20513;-91
2022/11/23 10:27:18;;;;;;;0.90;0.63;;;;;;;17.86;37.51;100721.81;5062383;28;20549;-92
2022/11/23 10:29:43;;;;;;;0.50;0.50;;;;;;;17.87;37.56;100718.06;5060546;28;20059;-92
2022/11/23 10:32:24;;;;;;;0.65;0.50;;;;;;;17.87;37.65;100723.47;5077869;28;20390;-92
2022/11/23 10:34:56;;;;;;;0.60;0.60;;;;;;;17.85;37.49;100721.00;5082194;28;20020;-92
2022/11/23 10:37:22;;;;;;;0.70;0.60;;;;;;;17.79;37.46;100709.19;5079261;28;20028;-92
2022/11/23 10:39:48;;;;;;;0.40;0.40;;;;;;;17.84;37.54;100717.44;5062411;28;20055;-91
2022/11/23 10:42:19;;;;;;;1.15;0.65;;;;;;;17.88;37.42;100730.53;5044651;28;20046;-92
2022/11/23 10:44:46;;;;;;;0.70;0.52;;;;;;;17.81;37.37;100712.50;5079031;28;20039;-92
2022/11/23 10:47:12;;;;;;;0.80;0.80;;;;;;;17.87;37.35;100724.31;5043916;28;20115;-92
2022/11/23 10:49:37;;;;;;;0.80;0.80;;;;;;;17.85;37.59;100712.88;5054493;28;20024;-92
2022/11/23 10:52:22;;;;;;;0.70;0.60;;;;;;;17.81;37.48;100712.50;5074021;28;20130;-93
2022/11/23 10:54:51;;;;;;;0.68;0.50;;;;;;;17.88;37.70;100719.72;5078637;28;20020;-92
2022/11/23 10:57:26;;;;;;;0.57;0.50;;;;;;;17.89;37.37;100722.22;5068446;28;20063;-90
2022/11/23 11:00:13;;;;;;;0.45;0.45;;;;;;;17.88;37.37;100717.03;5077504;28;20490;-92
2022/11/23 11:02:40;;;;;;;0.55;0.50;;;;;;;17.84;37.45;100712.03;5078671;28;20024;-92
2022/11/23 11:05:29;;;;;;;0.80;0.80;;;;;;;17.89;37.41;100707.88;5072036;28;20062;-93
2022/11/23 11:07:58;;;;;;;0.70;0.70;;;;;;;17.89;37.55;100716.00;5092430;28;20020;-92
2022/11/23 11:10:30;;;;;;;0.80;0.70;;;;;;;17.88;37.30;100708.91;5060308;28;20273;-91
2022/11/23 11:12:56;;;;;;;0.65;0.65;;;;;;;17.87;37.46;100707.25;5078522;28;20024;-93
2022/11/23 11:15:21;;;;;;;0.73;0.60;;;;;;;17.83;37.37;100701.44;5068045;28;20081;-92
2022/11/23 11:17:56;;;;;;;0.60;0.60;;;;;;;17.88;37.34;100703.50;5077221;28;20031;-92
2022/11/23 11:20:33;;;;;;;0.50;0.50;;;;;;;17.90;37.53;100707.66;5076500;28;20047;-92
2022/11/23 11:23:03;;;;;;;0.55;0.50;;;;;;;17.87;37.42;100702.69;5076037;28;20446;-92
2022/11/23 11:25:34;;;;;;;0.73;0.65;;;;;;;17.88;37.33;100700.81;5061063;28;20032;-92
2022/11/23 11:28:01;;;;;;;1.17;0.57;;;;;;;17.89;37.40;100708.69;5043448;28;20031;-92